Warlingham, United Kingdom
Current Conditions -  °F | °C
As of 6:20 PM on Thursday 18 Dec 2014 (Local Time) from EGKB Reporting Station
Drizzle Drizzle  
Wind Chill: 11°   Ceiling: 600
Heat Index: 11°   Visibility: 6mi
Dew Point: 10°   Wind: 15mph
Humidity: 94%   Direction: 230°SW
Pressure: 29.85"   Gusts: NA
Location:  51.32°N, 0.06°W
Report Text: EGKB 181820Z 23013KT 200V260 9999 -DZ BKN006 11/10 Q1011
Loading
Personal Weather Stations






























Interactive Weather Map New forecast layout! Learn more

10-Day Weather Forecast

Advertisements
Track Severe Weather on mobile